Archival Weather

Sharurah

Sharurah, Saudi Arabia (OESH)

Report from: Thursday, December 7, 2023 12:00 AM +03
Current time: Thursday, February 22, 2024 5:12 PM +03

Current weather – Weather history – Daily summaries
Weather forecast

Temperature19.0°C (66.2°F)
Dew point7.0°C (44.6°F)
Winds 6 kts (3.1 m/s, 6.9 mph) East (90°)
Clouds Sky clear
Altimeter30.06 in.Hg (1018 mB)
Relative humidity46 %
Density altitude455 ft. (139 m)
Remarks Ceiling and visibility OK
No significant changes expected in the next two hours
Flight conditions Visual Meteorological Conditions
Raw dataOESH 062100Z 09006KT CAVOK 19/07 Q1018 NOSIG
An error has occurred. This application may no longer respond until reloaded. Reload 🗙